createdAt,value
2022-10-22T00:01:15.500Z,23.67
2022-10-22T00:03:43.636Z,23.50
2022-10-22T00:06:11.763Z,24.60
2022-10-22T00:08:41.361Z,23.17
2022-10-22T00:11:11.229Z,22.53
2022-10-22T00:13:39.559Z,21.80
2022-10-22T00:16:08.543Z,24.77
2022-10-22T00:18:36.781Z,21.10
2022-10-22T00:21:05.924Z,24.37
2022-10-22T00:23:34.091Z,21.90
2022-10-22T00:26:03.565Z,21.07
2022-10-22T00:28:31.705Z,20.77
2022-10-22T00:31:01.721Z,26.30
2022-10-22T00:33:31.119Z,26.53
2022-10-22T00:36:00.088Z,25.00
2022-10-22T00:38:29.320Z,23.73
2022-10-22T00:40:57.494Z,25.97
2022-10-22T00:43:28.636Z,27.20
2022-10-22T00:45:56.765Z,23.27
2022-10-22T00:48:27.971Z,25.50
2022-10-22T00:51:00.559Z,29.97
2022-10-22T00:53:32.433Z,25.43
2022-10-22T00:56:01.055Z,28.60
2022-10-22T00:58:33.873Z,26.80
2022-10-22T01:01:03.074Z,28.30
2022-10-22T01:03:32.525Z,28.30
2022-10-22T01:06:04.365Z,28.40
2022-10-22T01:08:42.401Z,27.57
2022-10-22T01:11:22.620Z,33.00
2022-10-22T01:13:58.888Z,30.70
2022-10-22T01:16:35.827Z,26.07
2022-10-22T01:19:21.904Z,26.87
2022-10-22T01:21:57.277Z,29.53
2022-10-22T01:24:36.613Z,28.27
2022-10-22T01:27:16.317Z,30.27
2022-10-22T01:29:50.634Z,41.40
2022-10-22T01:32:22.401Z,32.87
2022-10-22T01:34:55.620Z,27.17
2022-10-22T01:37:27.750Z,30.80
2022-10-22T01:39:58.827Z,34.67
2022-10-22T01:42:27.055Z,36.93
2022-10-22T01:44:56.525Z,27.37
2022-10-22T01:47:40.406Z,38.63
2022-10-22T01:50:29.588Z,38.30
2022-10-22T01:53:07.992Z,26.67
2022-10-22T01:55:44.602Z,29.90
2022-10-22T01:58:23.993Z,30.53
2022-10-22T02:01:01.609Z,28.60
2022-10-22T02:03:39.687Z,25.97
2022-10-22T02:06:15.375Z,29.57
2022-10-22T02:08:44.415Z,27.30
2022-10-22T02:11:14.488Z,29.70
2022-10-22T02:13:45.517Z,25.40
2022-10-22T02:16:19.256Z,25.10
2022-10-22T02:18:50.355Z,24.13
2022-10-22T02:21:18.891Z,24.07
2022-10-22T02:23:47.629Z,28.00
2022-10-22T02:26:23.061Z,25.70
2022-10-22T02:28:59.426Z,26.40
2022-10-22T02:31:32.252Z,31.43
2022-10-22T02:34:05.698Z,32.13
2022-10-22T02:36:34.058Z,23.07
2022-10-22T02:39:03.222Z,36.70
2022-10-22T02:41:32.517Z,24.53
2022-10-22T02:44:02.707Z,33.53
2022-10-22T02:46:32.198Z,26.40
2022-10-22T02:49:00.453Z,25.30
2022-10-22T02:51:28.935Z,23.93
2022-10-22T02:53:57.046Z,26.20
2022-10-22T02:56:25.178Z,23.03
2022-10-22T02:58:53.365Z,25.70
2022-10-22T03:01:21.607Z,22.17
2022-10-22T03:03:51.206Z,25.60
2022-10-22T03:06:19.403Z,21.20
2022-10-22T03:08:47.651Z,23.77
2022-10-22T03:11:16.021Z,22.33
2022-10-22T03:13:44.144Z,26.80
2022-10-22T03:16:12.275Z,24.53
2022-10-22T03:18:40.436Z,25.70
2022-10-22T03:21:14.099Z,22.97
2022-10-22T03:23:44.614Z,25.80
2022-10-22T03:26:15.362Z,25.13
2022-10-22T03:28:44.086Z,26.83
2022-10-22T03:31:12.208Z,23.80
2022-10-22T03:33:40.373Z,24.03
2022-10-22T03:36:10.684Z,23.63
2022-10-22T03:38:40.994Z,28.17
2022-10-22T03:41:09.235Z,25.00
2022-10-22T03:43:39.180Z,21.47
2022-10-22T03:46:07.650Z,26.50
2022-10-22T03:48:35.780Z,28.63
2022-10-22T03:51:03.932Z,21.97
2022-10-22T03:53:33.666Z,23.30
2022-10-22T03:56:02.277Z,22.43
2022-10-22T03:58:30.433Z,24.80
2022-10-22T04:00:58.703Z,22.80
2022-10-22T04:03:27.254Z,23.00
2022-10-22T04:05:55.386Z,23.80
2022-10-22T04:08:23.838Z,25.40
2022-10-22T04:10:53.556Z,23.70
2022-10-22T04:13:21.734Z,25.20
2022-10-22T04:15:51.873Z,26.27
2022-10-22T04:18:20.270Z,25.87
2022-10-22T04:20:48.802Z,24.23
2022-10-22T04:23:16.917Z,24.60
2022-10-22T04:25:45.027Z,24.23
2022-10-22T04:28:14.534Z,28.10
2022-10-22T04:30:42.668Z,24.37
2022-10-22T04:33:10.784Z,25.90
2022-10-22T04:35:39.884Z,23.20
2022-10-22T04:38:08.025Z,25.83
2022-10-22T04:40:36.148Z,32.00
2022-10-22T04:43:04.592Z,24.40
2022-10-22T04:45:35.164Z,27.67
2022-10-22T04:48:03.288Z,31.30
2022-10-22T04:50:31.414Z,25.00
2022-10-22T04:52:59.708Z,26.17
2022-10-22T04:55:27.887Z,23.83
2022-10-22T04:57:56.215Z,26.30
2022-10-22T05:00:24.334Z,22.60
2022-10-22T05:02:54.157Z,25.90
2022-10-22T05:05:22.314Z,25.83
2022-10-22T05:07:52.123Z,24.23
2022-10-22T05:10:20.586Z,26.40
2022-10-22T05:12:49.045Z,27.13
2022-10-22T05:15:17.430Z,30.57
2022-10-22T05:17:45.564Z,27.67
2022-10-22T05:20:15.045Z,27.60
2022-10-22T05:22:43.166Z,29.37
2022-10-22T05:25:12.182Z,28.93
2022-10-22T05:27:40.590Z,27.90
2022-10-22T05:30:09.411Z,26.63
2022-10-22T05:32:37.853Z,24.97
2022-10-22T05:35:06.679Z,26.27
2022-10-22T05:37:36.136Z,25.43
2022-10-22T05:40:19.024Z,25.73
2022-10-22T05:42:53.040Z,24.63
2022-10-22T05:45:21.165Z,25.53
2022-10-22T05:47:49.521Z,25.57
2022-10-22T05:50:17.659Z,21.73
2022-10-22T05:52:47.112Z,23.30
2022-10-22T05:55:15.374Z,26.60
2022-10-22T05:57:43.496Z,22.73
2022-10-22T06:00:15.700Z,24.57
2022-10-22T06:02:44.950Z,25.13
2022-10-22T06:05:13.191Z,23.00
2022-10-22T06:07:41.336Z,22.13
2022-10-22T06:10:16.072Z,24.60
2022-10-22T06:12:44.400Z,24.97
2022-10-22T06:15:14.278Z,22.27
2022-10-22T06:17:42.727Z,23.80
2022-10-22T06:20:12.357Z,19.87
2022-10-22T06:22:40.791Z,23.63
2022-10-22T06:25:12.478Z,23.60
2022-10-22T06:27:40.647Z,21.80
2022-10-22T06:30:10.240Z,19.90
2022-10-22T06:32:38.607Z,21.23
2022-10-22T06:35:07.888Z,21.83
2022-10-22T06:37:36.006Z,20.40
2022-10-22T06:40:04.360Z,21.67
2022-10-22T06:42:33.833Z,20.37
2022-10-22T06:47:34.932Z,22.50
2022-10-22T06:50:03.463Z,22.50
2022-10-22T06:52:31.614Z,20.80
2022-10-22T06:54:59.793Z,21.57
2022-10-22T06:57:27.928Z,21.40
2022-10-22T06:59:57.387Z,20.83
2022-10-22T07:02:25.512Z,21.70
2022-10-22T07:04:53.654Z,21.57
2022-10-22T07:07:22.067Z,21.23
2022-10-22T07:09:51.423Z,23.33
2022-10-22T07:12:19.793Z,22.80
2022-10-22T07:14:48.227Z,21.37
2022-10-22T07:17:18.151Z,22.07
2022-10-22T07:19:49.636Z,22.53
2022-10-22T07:22:19.595Z,21.20
2022-10-22T07:24:47.754Z,20.40
2022-10-22T07:27:16.063Z,19.30
2022-10-22T07:29:44.227Z,20.03
2022-10-22T07:32:12.969Z,19.83
2022-10-22T07:34:43.908Z,19.10
2022-10-22T07:37:12.225Z,17.93
2022-10-22T07:39:40.384Z,18.03
2022-10-22T07:42:08.583Z,19.00
2022-10-22T07:44:36.781Z,18.27
2022-10-22T07:47:05.588Z,18.50
2022-10-22T07:49:33.821Z,18.23
2022-10-22T07:52:03.565Z,19.17
2022-10-22T07:54:31.687Z,17.97
2022-10-22T07:56:59.806Z,17.30
2022-10-22T07:59:27.972Z,17.03
2022-10-22T08:01:56.105Z,17.53
2022-10-22T08:04:24.268Z,18.13
2022-10-22T08:06:55.122Z,18.90
2022-10-22T08:09:25.363Z,17.70
2022-10-22T08:11:54.421Z,18.43
2022-10-22T08:14:25.639Z,16.50
2022-10-22T08:16:53.853Z,18.63
2022-10-22T08:19:22.228Z,16.97
2022-10-22T08:21:50.376Z,17.50
2022-10-22T08:24:18.527Z,17.30
2022-10-22T08:26:48.042Z,15.43
2022-10-22T08:29:16.643Z,16.20
2022-10-22T08:31:44.788Z,14.57
2022-10-22T08:34:13.235Z,16.73
2022-10-22T08:36:41.581Z,16.10
2022-10-22T08:39:09.818Z,16.40
2022-10-22T08:41:50.940Z,16.60
2022-10-22T08:44:44.651Z,17.23
2022-10-22T08:47:32.358Z,15.47
2022-10-22T08:50:01.380Z,15.70
2022-10-22T08:52:29.844Z,15.07
2022-10-22T08:54:59.752Z,17.50
2022-10-22T08:57:52.441Z,17.43
2022-10-22T09:00:25.055Z,16.57
2022-10-22T09:03:13.173Z,18.83
2022-10-22T09:05:49.375Z,15.53
2022-10-22T09:08:20.409Z,15.87
2022-10-22T09:10:52.044Z,16.23
2022-10-22T09:13:24.340Z,14.70
2022-10-22T09:15:56.611Z,16.93
2022-10-22T09:18:36.178Z,14.30
2022-10-22T09:21:14.616Z,15.20
2022-10-22T09:23:55.155Z,15.17
2022-10-22T09:26:23.367Z,13.70
2022-10-22T09:28:53.130Z,14.50
2022-10-22T09:31:21.271Z,14.67
2022-10-22T09:33:51.915Z,15.10
2022-10-22T09:36:23.743Z,15.17
2022-10-22T09:38:54.405Z,15.90
2022-10-22T09:41:26.349Z,14.53
2022-10-22T09:43:55.838Z,14.73
2022-10-22T09:46:28.998Z,13.87
2022-10-22T09:49:04.800Z,14.27
2022-10-22T09:51:47.275Z,14.30
2022-10-22T09:54:18.825Z,15.63
2022-10-22T09:56:56.809Z,15.23
2022-10-22T09:59:31.933Z,13.70
2022-10-22T10:02:13.775Z,15.00
2022-10-22T10:04:50.676Z,13.87
2022-10-22T10:07:21.300Z,14.20
2022-10-22T10:09:51.464Z,13.80
2022-10-22T10:12:32.513Z,13.27
2022-10-22T10:15:12.739Z,13.53
2022-10-22T10:17:49.290Z,13.43
2022-10-22T10:20:28.858Z,13.77
2022-10-22T10:23:04.573Z,14.43
2022-10-22T10:25:42.690Z,15.07
2022-10-22T10:28:21.452Z,14.97
2022-10-22T10:30:58.989Z,14.20
2022-10-22T10:33:36.174Z,13.87
2022-10-22T10:36:12.430Z,15.83
2022-10-22T10:38:52.334Z,14.60
2022-10-22T10:41:29.688Z,16.10
2022-10-22T10:44:27.854Z,17.33
2022-10-22T10:47:05.211Z,15.50
2022-10-22T10:49:36.239Z,16.77
2022-10-22T10:52:18.862Z,16.50
2022-10-22T10:55:01.629Z,16.30
2022-10-22T10:57:40.772Z,17.60
2022-10-22T11:00:12.775Z,16.43
2022-10-22T11:03:03.572Z,14.73
2022-10-22T11:05:43.025Z,16.17
2022-10-22T11:08:16.235Z,15.20
2022-10-22T11:10:48.123Z,15.80
2022-10-22T11:13:25.435Z,15.47
2022-10-22T11:15:59.673Z,14.57
2022-10-22T11:18:33.861Z,13.20
2022-10-22T11:21:11.109Z,14.20
2022-10-22T11:23:45.108Z,14.70
2022-10-22T11:26:25.032Z,14.20
2022-10-22T11:28:54.753Z,13.60
2022-10-22T11:31:25.357Z,15.17
2022-10-22T11:34:09.927Z,14.73
2022-10-22T11:36:51.332Z,15.43
2022-10-22T11:39:32.966Z,14.07
2022-10-22T11:42:04.869Z,14.67
2022-10-22T11:44:46.225Z,14.37
2022-10-22T11:47:19.561Z,14.50
2022-10-22T11:49:58.931Z,13.57
2022-10-22T11:52:39.560Z,13.80
2022-10-22T11:55:33.988Z,16.40
2022-10-22T11:58:04.004Z,14.20
2022-10-22T12:00:41.122Z,14.47
2022-10-22T12:03:20.121Z,12.63
2022-10-22T12:06:11.665Z,12.50
2022-10-22T12:08:45.281Z,12.10
2022-10-22T12:11:17.806Z,12.83
2022-10-22T12:13:59.438Z,13.50
2022-10-22T12:16:37.649Z,13.53
2022-10-22T12:19:25.530Z,13.70
2022-10-22T12:21:58.464Z,13.80
2022-10-22T12:24:31.330Z,14.03
2022-10-22T12:26:59.480Z,12.80
2022-10-22T12:29:28.590Z,16.03
2022-10-22T12:31:57.679Z,14.80
2022-10-22T12:34:26.408Z,15.90
2022-10-22T12:36:56.421Z,14.67
2022-10-22T12:39:28.289Z,13.80
2022-10-22T12:41:56.743Z,15.00
2022-10-22T12:44:24.972Z,15.77
2022-10-22T12:46:56.102Z,15.30
2022-10-22T12:49:37.345Z,15.20
2022-10-22T12:52:12.071Z,13.70
2022-10-22T12:54:42.336Z,16.60
2022-10-22T12:57:13.924Z,13.63
2022-10-22T12:59:48.815Z,12.97
2022-10-22T13:02:24.427Z,15.23
2022-10-22T13:05:17.426Z,14.27
2022-10-22T13:07:50.724Z,12.83
2022-10-22T13:10:26.286Z,12.90
2022-10-22T13:12:57.511Z,11.97
2022-10-22T13:15:40.195Z,13.13
2022-10-22T13:18:17.936Z,13.60
2022-10-22T13:20:55.229Z,12.53
2022-10-22T13:23:27.204Z,14.53
2022-10-22T13:26:01.342Z,13.40
2022-10-22T13:28:31.567Z,14.10
2022-10-22T13:31:01.549Z,13.77
2022-10-22T13:33:34.554Z,13.40
2022-10-22T13:36:03.409Z,12.90
2022-10-22T13:38:33.440Z,13.77
2022-10-22T13:41:03.220Z,15.00
2022-10-22T13:43:31.645Z,13.70
2022-10-22T13:46:00.986Z,14.77
2022-10-22T13:48:31.421Z,13.10
2022-10-22T13:50:59.722Z,13.47
2022-10-22T13:53:29.467Z,14.33
2022-10-22T13:55:59.236Z,13.30
2022-10-22T13:58:27.503Z,12.93
2022-10-22T14:00:58.156Z,13.67
2022-10-22T14:03:30.104Z,12.53
2022-10-22T14:05:58.639Z,13.50
2022-10-22T14:08:27.958Z,14.40
2022-10-22T14:10:57.002Z,12.20
2022-10-22T14:13:30.615Z,13.17
2022-10-22T14:15:59.149Z,13.50
2022-10-22T14:18:31.622Z,12.43
2022-10-22T14:21:04.773Z,12.53
2022-10-22T14:23:34.463Z,12.10
2022-10-22T14:26:03.284Z,13.40
2022-10-22T14:28:40.977Z,14.00
2022-10-22T14:31:14.543Z,11.07
2022-10-22T14:33:42.809Z,12.00
2022-10-22T14:36:14.347Z,12.27
2022-10-22T14:38:42.818Z,11.20
2022-10-22T14:41:21.277Z,11.90
2022-10-22T14:43:51.988Z,10.47
2022-10-22T14:46:20.509Z,8.80
2022-10-22T14:48:49.229Z,8.93
2022-10-22T14:51:19.158Z,9.90
2022-10-22T14:53:47.944Z,9.40
2022-10-22T14:56:18.553Z,10.70
2022-10-22T14:58:46.984Z,11.23
2022-10-22T15:01:16.796Z,10.87
2022-10-22T15:03:44.964Z,9.60
2022-10-22T15:06:13.152Z,9.80
2022-10-22T15:08:41.303Z,8.70
2022-10-22T15:11:12.845Z,8.20
2022-10-22T15:13:42.111Z,8.10
2022-10-22T15:16:11.904Z,7.83
2022-10-22T15:18:41.501Z,9.40
2022-10-22T15:21:17.630Z,8.10
2022-10-22T15:23:45.849Z,9.30
2022-10-22T15:26:14.684Z,9.57
2022-10-22T15:28:43.459Z,9.13
2022-10-22T15:31:13.833Z,8.33
2022-10-22T15:33:44.355Z,8.33
2022-10-22T15:36:14.795Z,9.80
2022-10-22T15:38:43.338Z,10.83
2022-10-22T15:41:13.499Z,8.43
2022-10-22T15:43:42.044Z,9.80
2022-10-22T15:46:13.517Z,10.07
2022-10-22T15:48:43.471Z,12.93
2022-10-22T15:51:13.974Z,11.93
2022-10-22T15:53:43.146Z,13.57
2022-10-22T15:56:12.650Z,10.53
2022-10-22T15:58:40.770Z,12.83
2022-10-22T16:01:10.931Z,12.00
2022-10-22T16:03:39.149Z,13.50
2022-10-22T16:06:10.143Z,10.67
2022-10-22T16:08:38.620Z,11.43
2022-10-22T16:11:07.103Z,10.80
2022-10-22T16:13:37.022Z,9.97
2022-10-22T16:16:07.908Z,12.23
2022-10-22T16:18:36.331Z,12.00
2022-10-22T16:21:04.932Z,11.07
2022-10-22T16:23:34.667Z,12.00
2022-10-22T16:26:03.132Z,9.60
2022-10-22T16:28:31.342Z,9.93
2022-10-22T16:31:04.188Z,12.43
2022-10-22T16:33:41.399Z,9.60
2022-10-22T16:36:13.808Z,9.00
2022-10-22T16:38:43.266Z,9.87
2022-10-22T16:41:14.040Z,10.40
2022-10-22T16:43:42.552Z,9.07
2022-10-22T16:46:11.007Z,8.20
2022-10-22T16:48:42.016Z,9.50
2022-10-22T16:51:11.829Z,8.70
2022-10-22T16:53:40.001Z,8.97
2022-10-22T16:56:11.034Z,10.03
2022-10-22T16:58:39.841Z,9.90
2022-10-22T17:01:08.814Z,8.20
2022-10-22T17:03:37.865Z,8.40
2022-10-22T17:06:06.592Z,7.10
2022-10-22T17:08:36.556Z,7.53
2022-10-22T17:11:08.531Z,7.40
2022-10-22T17:13:38.932Z,9.17
2022-10-22T17:16:09.401Z,6.80
2022-10-22T17:18:40.318Z,9.47
2022-10-22T17:21:09.888Z,8.33
2022-10-22T17:23:38.478Z,6.97
2022-10-22T17:26:08.412Z,7.73
2022-10-22T17:28:38.165Z,7.70
2022-10-22T17:31:07.904Z,6.70
2022-10-22T17:33:37.229Z,8.20
2022-10-22T17:36:09.157Z,6.50
2022-10-22T17:38:37.567Z,6.87
2022-10-22T17:41:07.470Z,6.90
2022-10-22T17:43:37.984Z,6.57
2022-10-22T17:46:08.247Z,6.07
2022-10-22T17:48:36.513Z,6.60
2022-10-22T17:51:07.682Z,6.90
2022-10-22T17:53:35.946Z,5.97
2022-10-22T17:56:07.091Z,11.33
2022-10-22T17:58:35.618Z,7.80
2022-10-22T18:01:06.058Z,16.27
2022-10-22T18:03:34.779Z,22.10
2022-10-22T18:06:10.149Z,18.30
2022-10-22T18:08:38.555Z,15.57
2022-10-22T18:11:08.061Z,13.50
2022-10-22T18:13:36.401Z,14.30
2022-10-22T18:16:06.726Z,9.40
2022-10-22T18:18:35.023Z,10.70
2022-10-22T18:21:03.890Z,8.80
2022-10-22T18:23:33.275Z,7.50
2022-10-22T18:26:01.886Z,5.83
2022-10-22T18:28:30.235Z,6.73
2022-10-22T18:30:58.479Z,5.30
2022-10-22T18:33:27.994Z,6.13
2022-10-22T18:35:56.876Z,6.83
2022-10-22T18:38:25.009Z,4.60
2022-10-22T18:40:53.183Z,3.53
2022-10-22T18:43:21.894Z,4.10
2022-10-22T18:45:50.179Z,5.10
2022-10-22T18:48:22.770Z,3.70
2022-10-22T18:51:01.804Z,20.17
2022-10-22T18:53:30.439Z,9.83
2022-10-22T18:55:58.891Z,9.50
2022-10-22T18:58:27.365Z,8.53
2022-10-22T19:00:55.808Z,6.63
2022-10-22T19:03:23.954Z,5.90
2022-10-22T19:05:56.375Z,5.53
2022-10-22T19:08:25.792Z,7.20
2022-10-22T19:10:54.002Z,8.60
2022-10-22T19:13:23.361Z,5.47
2022-10-22T19:15:56.364Z,5.90
2022-10-22T19:18:28.041Z,7.33
2022-10-22T19:21:04.143Z,6.83
2022-10-22T19:23:32.906Z,7.30
2022-10-22T19:26:03.216Z,8.80
2022-10-22T19:28:34.810Z,8.10
2022-10-22T19:31:05.835Z,10.60
2022-10-22T19:33:35.370Z,10.63
2022-10-22T19:36:07.050Z,12.17
2022-10-22T19:38:35.666Z,12.47
2022-10-22T19:41:03.890Z,10.20
2022-10-22T19:43:32.149Z,11.27
2022-10-22T19:46:00.524Z,10.70
2022-10-22T19:48:29.950Z,13.90
2022-10-22T19:51:03.072Z,15.27
2022-10-22T19:53:34.014Z,12.90
2022-10-22T19:56:02.766Z,13.30
2022-10-22T19:58:31.187Z,13.63
2022-10-22T20:01:04.973Z,11.90
2022-10-22T20:03:34.031Z,12.67
2022-10-22T20:06:02.216Z,11.87
2022-10-22T20:08:32.261Z,12.43
2022-10-22T20:11:00.611Z,10.60
2022-10-22T20:13:29.293Z,12.80
2022-10-22T20:15:58.009Z,12.27
2022-10-22T20:18:26.173Z,12.70
2022-10-22T20:20:54.403Z,14.63
2022-10-22T20:23:22.746Z,13.00
2022-10-22T20:25:52.575Z,11.93
2022-10-22T20:28:21.008Z,13.57
2022-10-22T20:30:49.154Z,11.90
2022-10-22T20:33:17.605Z,13.37
2022-10-22T20:35:46.205Z,13.47
2022-10-22T20:38:16.096Z,14.07
2022-10-22T20:40:44.305Z,15.37
2022-10-22T20:43:13.941Z,13.90
2022-10-22T20:45:42.074Z,13.33
2022-10-22T20:48:10.634Z,15.63
2022-10-22T20:50:39.008Z,14.10
2022-10-22T20:53:07.230Z,14.27
2022-10-22T20:55:35.648Z,15.33
2022-10-22T20:58:03.879Z,13.93
2022-10-22T21:00:36.101Z,13.90
2022-10-22T21:03:04.504Z,14.40
2022-10-22T21:05:32.649Z,14.23
2022-10-22T21:08:02.101Z,14.30
2022-10-22T21:10:33.116Z,13.73
2022-10-22T21:13:01.348Z,13.17
2022-10-22T21:15:29.567Z,13.90
2022-10-22T21:17:59.066Z,15.40
2022-10-22T21:20:27.262Z,18.50
2022-10-22T21:22:55.857Z,17.53
2022-10-22T21:25:23.977Z,16.20
2022-10-22T21:27:52.372Z,13.50
2022-10-22T21:30:20.493Z,12.33
2022-10-22T21:32:48.641Z,14.93
2022-10-22T21:35:18.457Z,13.07
2022-10-22T21:37:46.597Z,12.70
2022-10-22T21:40:15.344Z,12.57
2022-10-22T21:42:43.624Z,12.23
2022-10-22T21:45:14.827Z,13.80
2022-10-22T21:47:44.056Z,12.90
2022-10-22T21:50:12.543Z,12.50
2022-10-22T21:52:42.057Z,11.67
2022-10-22T21:55:10.511Z,10.40
2022-10-22T21:57:38.754Z,13.00
2022-10-22T22:00:08.462Z,13.53
2022-10-22T22:02:36.583Z,12.37
2022-10-22T22:05:05.012Z,10.50
2022-10-22T22:07:33.552Z,11.20
2022-10-22T22:10:02.995Z,11.20
2022-10-22T22:12:31.332Z,10.87
2022-10-22T22:14:59.445Z,10.60
2022-10-22T22:17:27.581Z,9.33
2022-10-22T22:19:56.509Z,10.97
2022-10-22T22:22:24.973Z,9.23
2022-10-22T22:24:53.091Z,9.63
2022-10-22T22:27:22.646Z,8.80
2022-10-22T22:29:50.789Z,10.47
2022-10-22T22:32:18.966Z,9.70
2022-10-22T22:34:47.157Z,10.73
2022-10-22T22:37:15.342Z,10.20
2022-10-22T22:39:43.448Z,10.00
2022-10-22T22:42:11.577Z,10.10
2022-10-22T22:44:41.064Z,10.97
2022-10-22T22:47:09.172Z,8.90
2022-10-22T22:49:37.320Z,10.17
2022-10-22T22:52:05.835Z,9.67
2022-10-22T22:54:34.266Z,9.67
2022-10-22T22:57:02.398Z,10.03
2022-10-22T22:59:30.652Z,9.80
2022-10-22T23:02:00.220Z,9.80
2022-10-22T23:04:30.166Z,9.50
2022-10-22T23:06:58.299Z,8.83
2022-10-22T23:09:26.529Z,9.80
2022-10-22T23:11:54.716Z,9.37
2022-10-22T23:14:25.486Z,7.87
2022-10-22T23:16:54.484Z,10.53
2022-10-22T23:19:27.284Z,9.00
2022-10-22T23:21:57.661Z,9.13
2022-10-22T23:24:27.332Z,8.30
2022-10-22T23:26:57.309Z,9.93
2022-10-22T23:29:27.483Z,9.47
2022-10-22T23:31:56.573Z,9.10
2022-10-22T23:34:26.297Z,7.43
2022-10-22T23:36:56.115Z,9.77
2022-10-22T23:39:27.358Z,8.53
2022-10-22T23:41:56.569Z,9.23
2022-10-22T23:44:26.040Z,9.40
2022-10-22T23:46:55.177Z,10.40
2022-10-22T23:49:23.481Z,9.10
2022-10-22T23:51:52.948Z,11.27
2022-10-22T23:54:21.210Z,10.67
2022-10-22T23:56:49.439Z,10.70
2022-10-22T23:59:17.617Z,9.03
